sensor_id;sensor_type;location;lat;lon;timestamp;P1;durP1;ratioP1;P2;durP2;ratioP2
15645;SDS011;7922;43.622;1.476;2023-04-06T00:00:13;7.00;;;6.33;;
15645;SDS011;7922;43.622;1.476;2023-04-06T00:02:38;8.30;;;6.80;;
15645;SDS011;7922;43.622;1.476;2023-04-06T00:05:04;7.40;;;6.20;;
15645;SDS011;7922;43.622;1.476;2023-04-06T00:07:29;9.80;;;6.73;;
15645;SDS011;7922;43.622;1.476;2023-04-06T00:09:55;8.80;;;6.60;;
15645;SDS011;7922;43.622;1.476;2023-04-06T00:12:20;6.67;;;6.00;;
15645;SDS011;7922;43.622;1.476;2023-04-06T00:14:45;7.03;;;6.20;;
15645;SDS011;7922;43.622;1.476;2023-04-06T00:17:11;7.90;;;6.60;;
15645;SDS011;7922;43.622;1.476;2023-04-06T00:19:36;6.97;;;6.20;;
15645;SDS011;7922;43.622;1.476;2023-04-06T00:22:01;7.90;;;5.90;;
15645;SDS011;7922;43.622;1.476;2023-04-06T00:24:27;6.77;;;6.07;;
15645;SDS011;7922;43.622;1.476;2023-04-06T00:26:52;6.90;;;6.20;;
15645;SDS011;7922;43.622;1.476;2023-04-06T00:29:17;7.10;;;6.40;;
15645;SDS011;7922;43.622;1.476;2023-04-06T00:31:43;8.93;;;6.20;;
15645;SDS011;7922;43.622;1.476;2023-04-06T00:34:09;7.13;;;6.17;;
15645;SDS011;7922;43.622;1.476;2023-04-06T00:36:34;7.67;;;6.60;;
15645;SDS011;7922;43.622;1.476;2023-04-06T00:38:59;7.27;;;5.97;;
15645;SDS011;7922;43.622;1.476;2023-04-06T00:41:25;6.87;;;6.07;;
15645;SDS011;7922;43.622;1.476;2023-04-06T00:43:50;6.37;;;5.80;;
15645;SDS011;7922;43.622;1.476;2023-04-06T00:46:16;6.63;;;5.93;;
15645;SDS011;7922;43.622;1.476;2023-04-06T00:48:41;7.13;;;6.10;;
15645;SDS011;7922;43.622;1.476;2023-04-06T00:51:06;8.50;;;5.57;;
15645;SDS011;7922;43.622;1.476;2023-04-06T00:53:31;7.00;;;5.57;;
15645;SDS011;7922;43.622;1.476;2023-04-06T00:55:57;7.27;;;5.60;;
15645;SDS011;7922;43.622;1.476;2023-04-06T00:58:23;7.43;;;6.27;;
15645;SDS011;7922;43.622;1.476;2023-04-06T01:00:48;8.73;;;6.17;;
15645;SDS011;7922;43.622;1.476;2023-04-06T01:03:14;8.53;;;6.23;;
15645;SDS011;7922;43.622;1.476;2023-04-06T01:05:39;7.23;;;5.90;;
15645;SDS011;7922;43.622;1.476;2023-04-06T01:08:04;6.87;;;5.83;;
15645;SDS011;7922;43.622;1.476;2023-04-06T01:10:30;6.70;;;6.00;;
15645;SDS011;7922;43.622;1.476;2023-04-06T01:12:55;7.03;;;5.77;;
15645;SDS011;7922;43.622;1.476;2023-04-06T01:15:20;8.20;;;5.73;;
15645;SDS011;7922;43.622;1.476;2023-04-06T01:17:46;6.67;;;5.90;;
15645;SDS011;7922;43.622;1.476;2023-04-06T01:20:12;7.03;;;6.10;;
15645;SDS011;7922;43.622;1.476;2023-04-06T01:22:37;6.80;;;6.20;;
15645;SDS011;7922;43.622;1.476;2023-04-06T01:25:03;6.00;;;5.37;;
15645;SDS011;7922;43.622;1.476;2023-04-06T01:27:28;6.20;;;5.33;;
15645;SDS011;7922;43.622;1.476;2023-04-06T01:29:54;6.43;;;5.83;;
15645;SDS011;7922;43.622;1.476;2023-04-06T01:32:19;6.03;;;5.43;;
15645;SDS011;7922;43.622;1.476;2023-04-06T01:34:44;6.83;;;5.23;;
15645;SDS011;7922;43.622;1.476;2023-04-06T01:37:10;6.07;;;5.47;;
15645;SDS011;7922;43.622;1.476;2023-04-06T01:39:35;6.27;;;5.33;;
15645;SDS011;7922;43.622;1.476;2023-04-06T01:42:00;6.43;;;5.47;;
15645;SDS011;7922;43.622;1.476;2023-04-06T01:44:25;6.10;;;5.50;;
15645;SDS011;7922;43.622;1.476;2023-04-06T01:46:51;5.33;;;4.83;;
15645;SDS011;7922;43.622;1.476;2023-04-06T01:49:16;6.40;;;5.07;;
15645;SDS011;7922;43.622;1.476;2023-04-06T01:51:41;6.47;;;5.00;;
15645;SDS011;7922;43.622;1.476;2023-04-06T01:54:07;5.87;;;5.37;;
15645;SDS011;7922;43.622;1.476;2023-04-06T01:56:32;7.80;;;5.17;;
15645;SDS011;7922;43.622;1.476;2023-04-06T01:58:57;5.80;;;5.30;;
15645;SDS011;7922;43.622;1.476;2023-04-06T02:01:23;5.93;;;5.33;;
15645;SDS011;7922;43.622;1.476;2023-04-06T02:03:48;5.93;;;5.33;;
15645;SDS011;7922;43.622;1.476;2023-04-06T02:06:13;7.60;;;5.63;;
15645;SDS011;7922;43.622;1.476;2023-04-06T02:08:38;5.90;;;5.27;;
15645;SDS011;7922;43.622;1.476;2023-04-06T02:11:04;7.40;;;5.43;;
15645;SDS011;7922;43.622;1.476;2023-04-06T02:13:29;6.23;;;5.10;;
15645;SDS011;7922;43.622;1.476;2023-04-06T02:15:54;7.23;;;6.10;;
15645;SDS011;7922;43.622;1.476;2023-04-06T02:18:20;5.53;;;5.03;;
15645;SDS011;7922;43.622;1.476;2023-04-06T02:20:46;6.00;;;5.37;;
15645;SDS011;7922;43.622;1.476;2023-04-06T02:23:11;5.73;;;5.23;;
15645;SDS011;7922;43.622;1.476;2023-04-06T02:25:36;5.87;;;4.90;;
15645;SDS011;7922;43.622;1.476;2023-04-06T02:28:02;5.90;;;5.30;;
15645;SDS011;7922;43.622;1.476;2023-04-06T02:30:27;6.90;;;5.47;;
15645;SDS011;7922;43.622;1.476;2023-04-06T02:32:52;7.57;;;5.20;;
15645;SDS011;7922;43.622;1.476;2023-04-06T02:35:18;6.07;;;5.00;;
15645;SDS011;7922;43.622;1.476;2023-04-06T02:37:43;8.07;;;6.03;;
15645;SDS011;7922;43.622;1.476;2023-04-06T02:40:09;5.47;;;4.93;;
15645;SDS011;7922;43.622;1.476;2023-04-06T02:42:34;5.63;;;5.03;;
15645;SDS011;7922;43.622;1.476;2023-04-06T02:45:00;5.57;;;5.07;;
15645;SDS011;7922;43.622;1.476;2023-04-06T02:47:25;5.70;;;5.10;;
15645;SDS011;7922;43.622;1.476;2023-04-06T02:49:50;5.60;;;5.10;;
15645;SDS011;7922;43.622;1.476;2023-04-06T02:52:16;6.20;;;5.20;;
15645;SDS011;7922;43.622;1.476;2023-04-06T02:54:41;6.17;;;5.57;;
15645;SDS011;7922;43.622;1.476;2023-04-06T02:57:07;8.30;;;5.10;;
15645;SDS011;7922;43.622;1.476;2023-04-06T02:59:32;5.57;;;5.00;;
15645;SDS011;7922;43.622;1.476;2023-04-06T03:01:58;5.27;;;4.67;;
15645;SDS011;7922;43.622;1.476;2023-04-06T03:04:23;6.90;;;5.50;;
15645;SDS011;7922;43.622;1.476;2023-04-06T03:06:48;5.40;;;4.70;;
15645;SDS011;7922;43.622;1.476;2023-04-06T03:09:14;7.43;;;5.17;;
15645;SDS011;7922;43.622;1.476;2023-04-06T03:11:39;5.43;;;4.90;;
15645;SDS011;7922;43.622;1.476;2023-04-06T03:14:04;5.67;;;5.10;;
15645;SDS011;7922;43.622;1.476;2023-04-06T03:16:29;6.20;;;4.87;;
15645;SDS011;7922;43.622;1.476;2023-04-06T03:18:55;6.60;;;4.60;;
15645;SDS011;7922;43.622;1.476;2023-04-06T03:21:20;5.80;;;4.90;;
15645;SDS011;7922;43.622;1.476;2023-04-06T03:23:45;5.67;;;5.13;;
15645;SDS011;7922;43.622;1.476;2023-04-06T03:26:11;6.73;;;5.17;;
15645;SDS011;7922;43.622;1.476;2023-04-06T03:28:36;8.07;;;4.90;;
15645;SDS011;7922;43.622;1.476;2023-04-06T03:31:01;4.87;;;4.20;;
15645;SDS011;7922;43.622;1.476;2023-04-06T03:33:27;5.50;;;5.00;;
15645;SDS011;7922;43.622;1.476;2023-04-06T03:35:52;5.87;;;4.50;;
15645;SDS011;7922;43.622;1.476;2023-04-06T03:38:18;6.57;;;4.80;;
15645;SDS011;7922;43.622;1.476;2023-04-06T03:40:44;6.47;;;5.43;;
15645;SDS011;7922;43.622;1.476;2023-04-06T03:43:09;7.97;;;5.00;;
15645;SDS011;7922;43.622;1.476;2023-04-06T03:45:34;7.97;;;5.07;;
15645;SDS011;7922;43.622;1.476;2023-04-06T03:48:00;7.77;;;4.33;;
15645;SDS011;7922;43.622;1.476;2023-04-06T03:50:25;7.40;;;4.93;;
15645;SDS011;7922;43.622;1.476;2023-04-06T03:52:50;5.37;;;4.87;;
15645;SDS011;7922;43.622;1.476;2023-04-06T03:55:16;6.43;;;4.97;;
15645;SDS011;7922;43.622;1.476;2023-04-06T03:57:41;5.67;;;4.87;;
15645;SDS011;7922;43.622;1.476;2023-04-06T04:00:06;5.07;;;4.57;;
15645;SDS011;7922;43.622;1.476;2023-04-06T04:02:32;5.80;;;5.23;;
15645;SDS011;7922;43.622;1.476;2023-04-06T04:04:58;6.37;;;4.90;;
15645;SDS011;7922;43.622;1.476;2023-04-06T04:07:23;5.30;;;4.60;;
15645;SDS011;7922;43.622;1.476;2023-04-06T04:09:48;5.20;;;4.80;;
15645;SDS011;7922;43.622;1.476;2023-04-06T04:12:14;5.27;;;4.77;;
15645;SDS011;7922;43.622;1.476;2023-04-06T04:14:39;5.00;;;4.50;;
15645;SDS011;7922;43.622;1.476;2023-04-06T04:17:04;6.37;;;4.47;;
15645;SDS011;7922;43.622;1.476;2023-04-06T04:19:29;5.40;;;4.90;;
15645;SDS011;7922;43.622;1.476;2023-04-06T04:21:55;5.00;;;4.50;;
15645;SDS011;7922;43.622;1.476;2023-04-06T04:24:20;5.17;;;4.67;;
15645;SDS011;7922;43.622;1.476;2023-04-06T04:26:45;8.97;;;5.20;;
15645;SDS011;7922;43.622;1.476;2023-04-06T04:29:11;5.17;;;4.60;;
15645;SDS011;7922;43.622;1.476;2023-04-06T04:31:36;5.73;;;4.33;;
15645;SDS011;7922;43.622;1.476;2023-04-06T04:34:01;5.27;;;4.03;;
15645;SDS011;7922;43.622;1.476;2023-04-06T04:36:27;5.77;;;4.57;;
15645;SDS011;7922;43.622;1.476;2023-04-06T04:38:52;6.47;;;4.87;;
15645;SDS011;7922;43.622;1.476;2023-04-06T04:41:17;6.30;;;4.60;;
15645;SDS011;7922;43.622;1.476;2023-04-06T04:43:43;6.13;;;4.50;;
15645;SDS011;7922;43.622;1.476;2023-04-06T04:46:09;5.03;;;4.40;;
15645;SDS011;7922;43.622;1.476;2023-04-06T04:48:34;4.90;;;4.20;;
15645;SDS011;7922;43.622;1.476;2023-04-06T04:50:59;4.97;;;4.53;;
15645;SDS011;7922;43.622;1.476;2023-04-06T04:53:25;4.73;;;4.33;;
15645;SDS011;7922;43.622;1.476;2023-04-06T04:55:50;4.70;;;4.27;;
15645;SDS011;7922;43.622;1.476;2023-04-06T04:58:16;6.83;;;4.73;;
15645;SDS011;7922;43.622;1.476;2023-04-06T05:00:41;5.33;;;4.77;;
15645;SDS011;7922;43.622;1.476;2023-04-06T05:03:09;7.07;;;4.40;;
15645;SDS011;7922;43.622;1.476;2023-04-06T05:05:41;5.63;;;4.60;;
15645;SDS011;7922;43.622;1.476;2023-04-06T05:08:06;5.70;;;4.50;;
15645;SDS011;7922;43.622;1.476;2023-04-06T05:10:31;4.77;;;4.30;;
15645;SDS011;7922;43.622;1.476;2023-04-06T05:12:57;5.23;;;4.70;;
15645;SDS011;7922;43.622;1.476;2023-04-06T05:15:22;5.47;;;4.67;;
15645;SDS011;7922;43.622;1.476;2023-04-06T05:17:47;4.57;;;4.17;;
15645;SDS011;7922;43.622;1.476;2023-04-06T05:20:13;5.23;;;4.70;;
15645;SDS011;7922;43.622;1.476;2023-04-06T05:22:38;5.23;;;4.73;;
15645;SDS011;7922;43.622;1.476;2023-04-06T05:25:04;6.00;;;4.73;;
15645;SDS011;7922;43.622;1.476;2023-04-06T05:27:29;4.87;;;4.37;;
15645;SDS011;7922;43.622;1.476;2023-04-06T05:29:54;5.37;;;4.67;;
15645;SDS011;7922;43.622;1.476;2023-04-06T05:32:20;5.63;;;4.20;;
15645;SDS011;7922;43.622;1.476;2023-04-06T05:34:45;5.47;;;4.50;;
15645;SDS011;7922;43.622;1.476;2023-04-06T05:37:10;6.07;;;5.03;;
15645;SDS011;7922;43.622;1.476;2023-04-06T05:39:36;8.70;;;6.90;;
15645;SDS011;7922;43.622;1.476;2023-04-06T05:42:03;11.10;;;7.93;;
15645;SDS011;7922;43.622;1.476;2023-04-06T05:44:29;5.40;;;4.63;;
15645;SDS011;7922;43.622;1.476;2023-04-06T05:46:54;5.97;;;5.37;;
15645;SDS011;7922;43.622;1.476;2023-04-06T05:49:19;5.73;;;5.20;;
15645;SDS011;7922;43.622;1.476;2023-04-06T05:51:45;5.57;;;4.60;;
15645;SDS011;7922;43.622;1.476;2023-04-06T05:54:10;8.43;;;5.80;;
15645;SDS011;7922;43.622;1.476;2023-04-06T05:56:35;5.17;;;4.67;;
15645;SDS011;7922;43.622;1.476;2023-04-06T05:59:01;6.67;;;5.70;;
15645;SDS011;7922;43.622;1.476;2023-04-06T06:01:26;6.67;;;5.47;;
15645;SDS011;7922;43.622;1.476;2023-04-06T06:03:51;9.27;;;5.47;;
15645;SDS011;7922;43.622;1.476;2023-04-06T06:06:17;8.70;;;5.23;;
15645;SDS011;7922;43.622;1.476;2023-04-06T06:08:42;8.57;;;5.13;;
15645;SDS011;7922;43.622;1.476;2023-04-06T06:11:07;6.27;;;4.60;;
15645;SDS011;7922;43.622;1.476;2023-04-06T06:13:32;8.50;;;4.77;;
15645;SDS011;7922;43.622;1.476;2023-04-06T06:15:58;5.00;;;4.47;;
15645;SDS011;7922;43.622;1.476;2023-04-06T06:18:23;8.37;;;4.90;;
15645;SDS011;7922;43.622;1.476;2023-04-06T06:20:48;5.87;;;5.17;;
15645;SDS011;7922;43.622;1.476;2023-04-06T06:23:14;6.03;;;4.73;;
15645;SDS011;7922;43.622;1.476;2023-04-06T06:25:39;6.67;;;4.50;;
15645;SDS011;7922;43.622;1.476;2023-04-06T06:28:04;5.10;;;4.60;;
15645;SDS011;7922;43.622;1.476;2023-04-06T06:30:30;5.43;;;4.93;;
15645;SDS011;7922;43.622;1.476;2023-04-06T06:32:55;6.97;;;5.30;;
15645;SDS011;7922;43.622;1.476;2023-04-06T06:35:20;5.93;;;5.10;;
15645;SDS011;7922;43.622;1.476;2023-04-06T06:37:45;7.67;;;5.17;;
15645;SDS011;7922;43.622;1.476;2023-04-06T06:40:11;7.90;;;6.00;;
15645;SDS011;7922;43.622;1.476;2023-04-06T06:42:36;9.77;;;5.40;;
15645;SDS011;7922;43.622;1.476;2023-04-06T06:45:02;7.00;;;5.30;;
15645;SDS011;7922;43.622;1.476;2023-04-06T06:47:27;9.63;;;5.87;;
15645;SDS011;7922;43.622;1.476;2023-04-06T06:49:52;6.20;;;5.30;;
15645;SDS011;7922;43.622;1.476;2023-04-06T06:52:18;7.90;;;5.53;;
15645;SDS011;7922;43.622;1.476;2023-04-06T06:54:43;6.13;;;5.47;;
15645;SDS011;7922;43.622;1.476;2023-04-06T06:57:08;6.50;;;5.07;;
15645;SDS011;7922;43.622;1.476;2023-04-06T06:59:34;5.93;;;5.27;;
15645;SDS011;7922;43.622;1.476;2023-04-06T07:01:59;7.30;;;5.87;;
15645;SDS011;7922;43.622;1.476;2023-04-06T07:04:24;5.90;;;4.87;;
15645;SDS011;7922;43.622;1.476;2023-04-06T07:06:50;8.17;;;5.17;;
15645;SDS011;7922;43.622;1.476;2023-04-06T07:09:15;7.83;;;5.50;;
15645;SDS011;7922;43.622;1.476;2023-04-06T07:11:40;9.63;;;5.73;;
15645;SDS011;7922;43.622;1.476;2023-04-06T07:14:06;7.30;;;5.50;;
15645;SDS011;7922;43.622;1.476;2023-04-06T07:16:31;10.13;;;6.07;;
15645;SDS011;7922;43.622;1.476;2023-04-06T07:18:56;10.60;;;6.50;;
15645;SDS011;7922;43.622;1.476;2023-04-06T07:21:21;8.97;;;6.10;;
15645;SDS011;7922;43.622;1.476;2023-04-06T07:23:47;11.33;;;5.83;;
15645;SDS011;7922;43.622;1.476;2023-04-06T07:26:12;9.73;;;5.83;;
15645;SDS011;7922;43.622;1.476;2023-04-06T07:28:37;9.03;;;6.63;;
15645;SDS011;7922;43.622;1.476;2023-04-06T07:31:03;8.27;;;6.77;;
15645;SDS011;7922;43.622;1.476;2023-04-06T07:33:28;9.93;;;7.20;;
15645;SDS011;7922;43.622;1.476;2023-04-06T07:35:53;8.43;;;6.93;;
15645;SDS011;7922;43.622;1.476;2023-04-06T07:38:19;13.03;;;7.93;;
15645;SDS011;7922;43.622;1.476;2023-04-06T07:40:44;8.37;;;6.73;;
15645;SDS011;7922;43.622;1.476;2023-04-06T07:43:09;10.03;;;6.60;;
15645;SDS011;7922;43.622;1.476;2023-04-06T07:45:34;8.03;;;6.67;;
15645;SDS011;7922;43.622;1.476;2023-04-06T07:48:00;13.70;;;7.87;;
15645;SDS011;7922;43.622;1.476;2023-04-06T07:50:25;10.13;;;6.10;;
15645;SDS011;7922;43.622;1.476;2023-04-06T07:52:50;7.53;;;6.40;;
15645;SDS011;7922;43.622;1.476;2023-04-06T07:55:16;9.57;;;6.53;;
15645;SDS011;7922;43.622;1.476;2023-04-06T07:57:41;12.73;;;6.30;;
15645;SDS011;7922;43.622;1.476;2023-04-06T08:00:06;8.80;;;6.63;;
15645;SDS011;7922;43.622;1.476;2023-04-06T08:02:32;5.30;;;4.37;;
15645;SDS011;7922;43.622;1.476;2023-04-06T08:04:58;5.63;;;4.53;;
15645;SDS011;7922;43.622;1.476;2023-04-06T08:07:23;10.30;;;4.80;;
15645;SDS011;7922;43.622;1.476;2023-04-06T08:09:48;6.97;;;4.60;;
15645;SDS011;7922;43.622;1.476;2023-04-06T08:12:14;9.53;;;4.60;;
15645;SDS011;7922;43.622;1.476;2023-04-06T08:14:39;7.23;;;5.27;;
15645;SDS011;7922;43.622;1.476;2023-04-06T08:17:05;8.87;;;5.20;;
15645;SDS011;7922;43.622;1.476;2023-04-06T08:19:30;10.17;;;6.13;;
15645;SDS011;7922;43.622;1.476;2023-04-06T08:21:55;5.83;;;5.17;;
15645;SDS011;7922;43.622;1.476;2023-04-06T08:24:21;11.10;;;5.73;;
15645;SDS011;7922;43.622;1.476;2023-04-06T08:26:46;8.63;;;4.60;;
15645;SDS011;7922;43.622;1.476;2023-04-06T08:29:11;6.97;;;4.73;;
15645;SDS011;7922;43.622;1.476;2023-04-06T08:31:36;7.30;;;4.40;;
15645;SDS011;7922;43.622;1.476;2023-04-06T08:34:05;5.73;;;4.67;;
15645;SDS011;7922;43.622;1.476;2023-04-06T08:36:30;6.90;;;4.60;;
15645;SDS011;7922;43.622;1.476;2023-04-06T08:38:56;6.30;;;4.27;;
15645;SDS011;7922;43.622;1.476;2023-04-06T08:41:22;6.03;;;4.37;;
15645;SDS011;7922;43.622;1.476;2023-04-06T08:43:48;5.47;;;4.97;;
15645;SDS011;7922;43.622;1.476;2023-04-06T08:46:18;5.90;;;5.27;;
15645;SDS011;7922;43.622;1.476;2023-04-06T08:48:43;5.13;;;4.63;;
15645;SDS011;7922;43.622;1.476;2023-04-06T08:51:10;5.03;;;4.37;;
15645;SDS011;7922;43.622;1.476;2023-04-06T08:53:36;4.63;;;4.13;;
15645;SDS011;7922;43.622;1.476;2023-04-06T08:56:02;5.37;;;4.23;;
15645;SDS011;7922;43.622;1.476;2023-04-06T08:58:33;7.50;;;4.63;;
15645;SDS011;7922;43.622;1.476;2023-04-06T09:01:02;8.47;;;4.93;;
15645;SDS011;7922;43.622;1.476;2023-04-06T09:03:31;6.47;;;4.63;;
15645;SDS011;7922;43.622;1.476;2023-04-06T09:06:01;6.83;;;4.77;;
15645;SDS011;7922;43.622;1.476;2023-04-06T09:08:26;6.67;;;4.70;;
15645;SDS011;7922;43.622;1.476;2023-04-06T09:10:51;7.33;;;4.63;;
15645;SDS011;7922;43.622;1.476;2023-04-06T09:13:17;5.47;;;4.87;;
15645;SDS011;7922;43.622;1.476;2023-04-06T09:15:42;8.80;;;5.57;;
15645;SDS011;7922;43.622;1.476;2023-04-06T09:18:08;5.63;;;5.03;;
15645;SDS011;7922;43.622;1.476;2023-04-06T09:20:33;8.97;;;5.47;;
15645;SDS011;7922;43.622;1.476;2023-04-06T09:22:58;6.50;;;5.23;;
15645;SDS011;7922;43.622;1.476;2023-04-06T09:25:24;10.13;;;6.10;;
15645;SDS011;7922;43.622;1.476;2023-04-06T09:28:00;8.83;;;5.27;;
15645;SDS011;7922;43.622;1.476;2023-04-06T09:30:28;4.60;;;4.20;;
15645;SDS011;7922;43.622;1.476;2023-04-06T09:32:54;4.60;;;4.20;;
15645;SDS011;7922;43.622;1.476;2023-04-06T09:35:21;4.97;;;4.57;;
15645;SDS011;7922;43.622;1.476;2023-04-06T09:37:48;5.00;;;3.90;;
15645;SDS011;7922;43.622;1.476;2023-04-06T09:40:14;5.20;;;3.80;;
15645;SDS011;7922;43.622;1.476;2023-04-06T09:42:40;3.70;;;3.20;;
15645;SDS011;7922;43.622;1.476;2023-04-06T09:45:06;4.83;;;3.57;;
15645;SDS011;7922;43.622;1.476;2023-04-06T09:47:32;3.80;;;3.40;;
15645;SDS011;7922;43.622;1.476;2023-04-06T09:50:00;3.87;;;3.47;;
15645;SDS011;7922;43.622;1.476;2023-04-06T09:52:32;5.03;;;3.33;;
15645;SDS011;7922;43.622;1.476;2023-04-06T09:55:02;7.27;;;3.77;;
15645;SDS011;7922;43.622;1.476;2023-04-06T09:57:34;4.13;;;3.80;;
15645;SDS011;7922;43.622;1.476;2023-04-06T10:00:08;3.97;;;3.50;;
15645;SDS011;7922;43.622;1.476;2023-04-06T10:07:52;5.20;;;3.37;;
15645;SDS011;7922;43.622;1.476;2023-04-06T10:10:21;5.00;;;3.63;;
15645;SDS011;7922;43.622;1.476;2023-04-06T10:12:47;4.57;;;2.80;;
15645;SDS011;7922;43.622;1.476;2023-04-06T10:15:13;4.00;;;3.23;;
15645;SDS011;7922;43.622;1.476;2023-04-06T10:17:38;3.87;;;3.03;;
15645;SDS011;7922;43.622;1.476;2023-04-06T10:20:06;4.47;;;3.20;;
15645;SDS011;7922;43.622;1.476;2023-04-06T10:25:07;3.90;;;3.20;;
15645;SDS011;7922;43.622;1.476;2023-04-06T10:27:33;3.47;;;3.17;;
15645;SDS011;7922;43.622;1.476;2023-04-06T10:30:05;4.07;;;2.83;;
15645;SDS011;7922;43.622;1.476;2023-04-06T10:32:40;3.50;;;3.10;;
15645;SDS011;7922;43.622;1.476;2023-04-06T10:35:11;3.10;;;2.80;;
15645;SDS011;7922;43.622;1.476;2023-04-06T10:37:46;3.80;;;2.90;;
15645;SDS011;7922;43.622;1.476;2023-04-06T10:40:26;6.80;;;2.90;;
15645;SDS011;7922;43.622;1.476;2023-04-06T10:42:55;3.63;;;3.03;;
15645;SDS011;7922;43.622;1.476;2023-04-06T10:45:31;2.67;;;2.37;;
15645;SDS011;7922;43.622;1.476;2023-04-06T10:47:56;3.43;;;3.13;;
15645;SDS011;7922;43.622;1.476;2023-04-06T10:50:22;3.90;;;2.80;;
15645;SDS011;7922;43.622;1.476;2023-04-06T10:52:58;4.03;;;2.63;;
15645;SDS011;7922;43.622;1.476;2023-04-06T10:55:25;3.50;;;2.87;;
15645;SDS011;7922;43.622;1.476;2023-04-06T10:57:51;2.60;;;2.40;;
15645;SDS011;7922;43.622;1.476;2023-04-06T11:00:17;3.93;;;2.40;;
15645;SDS011;7922;43.622;1.476;2023-04-06T11:02:42;3.23;;;2.53;;
15645;SDS011;7922;43.622;1.476;2023-04-06T11:05:08;2.90;;;2.47;;
15645;SDS011;7922;43.622;1.476;2023-04-06T11:07:36;3.53;;;2.40;;
15645;SDS011;7922;43.622;1.476;2023-04-06T11:10:02;3.13;;;2.73;;
15645;SDS011;7922;43.622;1.476;2023-04-06T11:12:27;2.70;;;2.50;;
15645;SDS011;7922;43.622;1.476;2023-04-06T11:14:56;4.30;;;2.80;;
15645;SDS011;7922;43.622;1.476;2023-04-06T11:17:29;3.20;;;2.90;;
15645;SDS011;7922;43.622;1.476;2023-04-06T11:19:55;3.73;;;2.77;;
15645;SDS011;7922;43.622;1.476;2023-04-06T11:22:21;2.83;;;2.50;;
15645;SDS011;7922;43.622;1.476;2023-04-06T11:24:47;3.67;;;2.90;;
15645;SDS011;7922;43.622;1.476;2023-04-06T11:27:12;3.37;;;2.70;;
15645;SDS011;7922;43.622;1.476;2023-04-06T11:29:38;4.27;;;2.80;;
15645;SDS011;7922;43.622;1.476;2023-04-06T11:32:05;2.50;;;2.30;;
15645;SDS011;7922;43.622;1.476;2023-04-06T11:34:32;3.03;;;2.43;;
15645;SDS011;7922;43.622;1.476;2023-04-06T11:36:59;2.90;;;2.57;;
15645;SDS011;7922;43.622;1.476;2023-04-06T11:39:26;2.47;;;2.20;;
15645;SDS011;7922;43.622;1.476;2023-04-06T11:42:02;2.80;;;2.40;;
15645;SDS011;7922;43.622;1.476;2023-04-06T11:47:03;2.77;;;2.47;;
15645;SDS011;7922;43.622;1.476;2023-04-06T11:49:31;2.67;;;2.20;;
15645;SDS011;7922;43.622;1.476;2023-04-06T11:51:57;4.60;;;3.43;;
15645;SDS011;7922;43.622;1.476;2023-04-06T11:54:33;2.60;;;2.40;;
15645;SDS011;7922;43.622;1.476;2023-04-06T11:56:59;2.27;;;1.80;;
15645;SDS011;7922;43.622;1.476;2023-04-06T11:59:25;2.33;;;1.80;;
15645;SDS011;7922;43.622;1.476;2023-04-06T12:01:50;1.87;;;1.77;;
15645;SDS011;7922;43.622;1.476;2023-04-06T12:04:15;2.20;;;1.77;;
15645;SDS011;7922;43.622;1.476;2023-04-06T12:06:41;3.07;;;2.07;;
15645;SDS011;7922;43.622;1.476;2023-04-06T12:09:06;2.00;;;1.80;;
15645;SDS011;7922;43.622;1.476;2023-04-06T12:11:31;1.70;;;1.60;;
15645;SDS011;7922;43.622;1.476;2023-04-06T12:13:57;2.13;;;1.93;;
15645;SDS011;7922;43.622;1.476;2023-04-06T12:16:22;2.73;;;1.70;;
15645;SDS011;7922;43.622;1.476;2023-04-06T12:18:47;3.43;;;2.00;;
15645;SDS011;7922;43.622;1.476;2023-04-06T12:21:13;1.40;;;1.30;;
15645;SDS011;7922;43.622;1.476;2023-04-06T12:23:38;1.87;;;1.60;;
15645;SDS011;7922;43.622;1.476;2023-04-06T12:26:03;3.23;;;1.60;;
15645;SDS011;7922;43.622;1.476;2023-04-06T12:28:29;3.17;;;1.90;;
15645;SDS011;7922;43.622;1.476;2023-04-06T12:30:54;1.63;;;1.53;;
15645;SDS011;7922;43.622;1.476;2023-04-06T12:33:20;1.90;;;1.67;;
15645;SDS011;7922;43.622;1.476;2023-04-06T12:35:45;1.57;;;1.47;;
15645;SDS011;7922;43.622;1.476;2023-04-06T12:38:11;1.67;;;1.50;;
15645;SDS011;7922;43.622;1.476;2023-04-06T12:40:36;1.83;;;1.40;;
15645;SDS011;7922;43.622;1.476;2023-04-06T12:43:05;2.03;;;1.90;;
15645;SDS011;7922;43.622;1.476;2023-04-06T12:45:30;2.10;;;1.90;;
15645;SDS011;7922;43.622;1.476;2023-04-06T12:47:56;2.30;;;2.00;;
15645;SDS011;7922;43.622;1.476;2023-04-06T12:50:22;2.63;;;1.73;;
15645;SDS011;7922;43.622;1.476;2023-04-06T12:52:47;1.60;;;1.50;;
15645;SDS011;7922;43.622;1.476;2023-04-06T12:55:12;1.97;;;1.57;;
15645;SDS011;7922;43.622;1.476;2023-04-06T12:57:38;2.37;;;1.70;;
15645;SDS011;7922;43.622;1.476;2023-04-06T13:00:03;3.63;;;1.63;;
15645;SDS011;7922;43.622;1.476;2023-04-06T13:02:30;1.97;;;1.60;;
15645;SDS011;7922;43.622;1.476;2023-04-06T13:04:55;2.50;;;2.13;;
15645;SDS011;7922;43.622;1.476;2023-04-06T13:07:21;2.00;;;1.80;;
15645;SDS011;7922;43.622;1.476;2023-04-06T13:09:46;3.37;;;1.40;;
15645;SDS011;7922;43.622;1.476;2023-04-06T13:12:12;1.70;;;1.60;;
15645;SDS011;7922;43.622;1.476;2023-04-06T13:14:37;2.77;;;1.50;;
15645;SDS011;7922;43.622;1.476;2023-04-06T13:17:02;1.40;;;1.30;;
15645;SDS011;7922;43.622;1.476;2023-04-06T13:19:28;2.03;;;1.60;;
15645;SDS011;7922;43.622;1.476;2023-04-06T13:21:53;4.00;;;1.50;;
15645;SDS011;7922;43.622;1.476;2023-04-06T13:24:18;2.60;;;1.40;;
15645;SDS011;7922;43.622;1.476;2023-04-06T13:26:44;1.73;;;1.50;;
15645;SDS011;7922;43.622;1.476;2023-04-06T13:29:09;2.47;;;1.50;;
15645;SDS011;7922;43.622;1.476;2023-04-06T13:31:34;2.10;;;1.90;;
15645;SDS011;7922;43.622;1.476;2023-04-06T13:34:00;2.43;;;1.50;;
15645;SDS011;7922;43.622;1.476;2023-04-06T13:36:25;1.73;;;1.63;;
15645;SDS011;7922;43.622;1.476;2023-04-06T13:38:51;1.50;;;1.40;;
15645;SDS011;7922;43.622;1.476;2023-04-06T13:41:19;1.93;;;1.50;;
15645;SDS011;7922;43.622;1.476;2023-04-06T13:43:45;1.83;;;1.40;;
15645;SDS011;7922;43.622;1.476;2023-04-06T13:46:11;1.53;;;1.23;;
15645;SDS011;7922;43.622;1.476;2023-04-06T13:48:36;4.23;;;1.50;;
15645;SDS011;7922;43.622;1.476;2023-04-06T13:51:11;2.00;;;1.70;;
15645;SDS011;7922;43.622;1.476;2023-04-06T13:53:37;1.70;;;1.60;;
15645;SDS011;7922;43.622;1.476;2023-04-06T13:56:02;2.10;;;1.53;;
15645;SDS011;7922;43.622;1.476;2023-04-06T13:58:28;2.67;;;1.60;;
15645;SDS011;7922;43.622;1.476;2023-04-06T14:00:53;1.93;;;1.50;;
15645;SDS011;7922;43.622;1.476;2023-04-06T14:03:20;2.67;;;1.50;;
15645;SDS011;7922;43.622;1.476;2023-04-06T14:05:46;3.20;;;1.70;;
15645;SDS011;7922;43.622;1.476;2023-04-06T14:08:11;2.03;;;1.50;;
15645;SDS011;7922;43.622;1.476;2023-04-06T14:10:39;2.43;;;1.63;;
15645;SDS011;7922;43.622;1.476;2023-04-06T14:13:05;2.07;;;1.60;;
15645;SDS011;7922;43.622;1.476;2023-04-06T14:15:31;4.10;;;1.67;;
15645;SDS011;7922;43.622;1.476;2023-04-06T14:17:56;2.37;;;1.50;;
15645;SDS011;7922;43.622;1.476;2023-04-06T14:20:21;1.73;;;1.27;;
15645;SDS011;7922;43.622;1.476;2023-04-06T14:22:47;2.67;;;1.70;;
15645;SDS011;7922;43.622;1.476;2023-04-06T14:25:12;1.40;;;1.30;;
15645;SDS011;7922;43.622;1.476;2023-04-06T14:27:37;4.03;;;2.17;;
15645;SDS011;7922;43.622;1.476;2023-04-06T14:30:03;2.73;;;2.20;;
15645;SDS011;7922;43.622;1.476;2023-04-06T14:32:29;3.20;;;1.50;;
15645;SDS011;7922;43.622;1.476;2023-04-06T14:34:54;2.80;;;2.00;;
15645;SDS011;7922;43.622;1.476;2023-04-06T14:37:19;3.83;;;1.53;;
15645;SDS011;7922;43.622;1.476;2023-04-06T14:39:45;1.97;;;1.60;;
15645;SDS011;7922;43.622;1.476;2023-04-06T14:42:10;4.57;;;1.77;;
15645;SDS011;7922;43.622;1.476;2023-04-06T14:44:35;4.37;;;1.63;;
15645;SDS011;7922;43.622;1.476;2023-04-06T14:47:00;2.30;;;1.30;;
15645;SDS011;7922;43.622;1.476;2023-04-06T14:49:26;1.87;;;1.37;;
15645;SDS011;7922;43.622;1.476;2023-04-06T14:51:51;1.20;;;1.10;;
15645;SDS011;7922;43.622;1.476;2023-04-06T14:54:16;1.20;;;1.10;;
15645;SDS011;7922;43.622;1.476;2023-04-06T14:56:41;1.90;;;1.10;;
15645;SDS011;7922;43.622;1.476;2023-04-06T14:59:07;3.27;;;0.90;;
15645;SDS011;7922;43.622;1.476;2023-04-06T15:01:36;1.27;;;1.10;;